Flight Track Log - Related Links

Times and Time Zones

All times are in EDT time to prevent confusion due to time zone crossing. See the AWE1940 flight status page for this flight to view local times or setup timezone preferences in your user account.

Time Position Orientation Groundspeed Altitude Reporting Facility
EDT Latitude Longitude Course Direction KTS MPH feet Rate Location/Type
Sun 10:27:16 PM 35.1950 -80.9356 178° South 160 184 1,600  Level Atlanta Center
Sun 10:27:52 PM 35.1658 -80.9342 178° South 163 188 2,700 2,351 Climbing Atlanta Center
Sun 10:28:53 PM 35.1186 -80.8903 143° Southeast 235 270 5,400 2,557 Climbing Atlanta Center
Sun 10:29:54 PM 35.0936 -80.8072 110° East 287 330 7,900 2,479 Climbing Atlanta Center
Sun 10:30:54 PM 35.1058 -80.7128 81° East 301 346 10,400 2,500 Climbing Atlanta Center
Sun 10:31:54 PM 35.1531 -80.6169 59° Northeast 337 388 12,900 2,100 Climbing Atlanta Center
Sun 10:32:54 PM 35.2308 -80.5603 31° Northeast 319 367 14,600 2,350 Climbing Atlanta Center
Sun 10:33:54 PM 35.3247 -80.4853 33° Northeast 365 420 17,600 2,591 Climbing Atlanta Center
Sun 10:35:50 PM 35.4094 -80.2175 69° East 407 468 22,200 1,841 Climbing Washington Center
Sun 10:36:50 PM 35.4483 -80.0717 72° East 440 506 23,000 893 Climbing Washington Center
Sun 10:37:51 PM 35.4842 -79.9464 71° East 435 501 24,000 1,388 Climbing Washington Center
Sun 10:38:51 PM 35.5208 -79.8003 73° East 440 506 25,800 1,815 Climbing Washington Center
Sun 10:39:50 PM 35.5594 -79.6467 73° East 445 512 27,600 1,650 Climbing Washington Center
Sun 10:40:51 PM 35.6028 -79.4750 73° East 471 542 29,100 1,550 Climbing Washington Center
Sun 10:41:50 PM 35.6531 -79.3369 66° East 476 548 30,700 1,815 Climbing Washington Center
Sun 10:42:50 PM 35.7139 -79.1889 63° Northeast 476 548 32,700 1,150 Climbing Washington Center
Sun 10:43:50 PM 35.7792 -79.0306 63° Northeast 476 548 33,000 149 Climbing Washington Center
Sun 10:44:51 PM 35.8397 -78.8819 63° Northeast 476 548 33,000 541 Level Washington Center
Sun 10:45:52 PM 35.9019 -78.7358 62° Northeast 481 554 34,100 1,008 Climbing Washington Center
Sun 10:46:50 PM 35.9661 -78.5972 60° Northeast 481 554 35,000 454 Climbing Washington Center
Sun 10:47:51 PM 36.0342 -78.4558 59° Northeast 470 541 35,000  Level Washington Center
Sun 10:48:50 PM 36.1042 -78.3144 58° Northeast 470 541 35,000  Level Washington Center
Sun 10:49:51 PM 36.1700 -78.1753 60° Northeast 470 541 35,000  Level Washington Center
Sun 10:50:50 PM 36.2356 -78.0358 60° Northeast 470 541 35,000  Level Washington Center
Sun 10:51:51 PM 36.3008 -77.9011 59° Northeast 465 535 35,000  Level Washington Center
Sun 10:52:52 PM 36.3658 -77.7639 60° Northeast 459 528 35,000  Level Washington Center
Sun 10:53:52 PM 36.4178 -77.6542 60° Northeast 459 528 35,000  Level Washington Center
Sun 10:54:49 PM 36.4850 -77.5036 61° Northeast 453 521 35,000  Level Washington Center
Sun 10:55:50 PM 36.5497 -77.3656 60° Northeast 453 521 35,000  Level Washington Center
Sun 10:56:51 PM 36.6144 -77.2300 59° Northeast 453 521 35,000  Level Washington Center
Sun 10:57:52 PM 36.6786 -77.0889 60° Northeast 453 521 35,000  Level Washington Center
Sun 10:58:50 PM 36.7594 -76.9633 51° Northeast 459 528 35,000  Level Washington Center
Sun 10:59:52 PM 36.8669 -76.8692 35° Northeast 453 521 35,000  Level Washington Center
Sun 11:00:50 PM 36.9744 -76.7747 35° Northeast 458 527 35,000  Level Washington Center
Sun 11:01:51 PM 37.0922 -76.6672 36° Northeast 469 540 35,000  Level Washington Center
Sun 11:02:51 PM 37.1994 -76.5697 36° Northeast 474 545 35,000  Level Washington Center
Sun 11:03:49 PM 37.3044 -76.4717 37° Northeast 474 545 35,000  Level Washington Center
Sun 11:04:51 PM 37.4114 -76.3736 36° Northeast 474 545 35,000  Level Washington Center
Sun 11:05:52 PM 37.5142 -76.2753 37° Northeast 469 540 35,000  Level Washington Center
Sun 11:06:51 PM 37.6253 -76.1764 35° Northeast 469 540 35,000  Level Washington Center
Sun 11:07:51 PM 37.7236 -76.0986 32° Northeast 469 540 35,000  Level Washington Center
Sun 11:08:51 PM 37.8450 -75.9967 34° Northeast 469 540 35,000  Level Washington Center
Sun 11:09:50 PM 37.9581 -75.9131 30° Northeast 469 540 35,000  Level Washington Center
Sun 11:10:52 PM 38.0603 -75.8369 30° Northeast 469 540 35,000  Level Washington Center
Sun 11:11:50 PM 38.1750 -75.7503 31° Northeast 469 540 35,000  Level Washington Center
Sun 11:12:49 PM 38.2878 -75.6658 30° Northeast 469 540 35,000  Level Washington Center
Sun 11:13:50 PM 38.4025 -75.5811 30° Northeast 464 534 35,000  Level Washington Center
Sun 11:14:52 PM 38.5150 -75.4989 30° Northeast 464 534 35,000  Level Washington Center
Sun 11:15:50 PM 38.6256 -75.4189 29° Northeast 464 534 35,000  Level Washington Center
Sun 11:16:50 PM 38.7378 -75.3336 31° Northeast 464 534 35,000  Level Washington Center
Sun 11:17:51 PM 38.8522 -75.2478 30° Northeast 464 534 35,000  Level Washington Center
Sun 11:18:50 PM 38.9625 -75.1644 30° Northeast 464 534 35,000  Level Washington Center
Sun 11:19:51 PM 39.0725 -75.0756 32° Northeast 464 534 35,000  Level Washington Center
Sun 11:20:52 PM 39.1847 -74.9892 31° Northeast 464 534 35,000  Level Washington Center
Sun 11:21:52 PM 39.2969 -74.8997 32° Northeast 464 534 35,000  Level Washington Center
Sun 11:22:50 PM 39.4233 -74.8044 30° Northeast 469 540 35,000  Level Washington Center
Sun 11:24:41 PM 39.6269 -74.6414 32° Northeast 468 539 35,000  Level New York Center
Sun 11:25:40 PM 39.7275 -74.5606 32° Northeast 473 544 35,000  Level New York Center
Sun 11:26:39 PM 39.8536 -74.4619 31° Northeast 473 544 35,000  Level New York Center
Sun 11:27:40 PM 39.9703 -74.3978 23° Northeast 467 537 35,000  Level New York Center
Sun 11:28:39 PM 40.0983 -74.3717 North 455 524 35,000  Level New York Center
Sun 11:29:39 PM 40.2261 -74.3486 North 455 524 35,000  Level New York Center
Sun 11:30:39 PM 40.3519 -74.3222 North 455 524 35,000  Level New York Center
Sun 11:31:41 PM 40.4778 -74.2989 North 450 518 35,000 -140 Level New York Center
Sun 11:33:30 PM 40.6958 -74.2494 10° North 471 542 34,600 -923 Descending Boston Center
Sun 11:34:30 PM 40.8378 -74.2286 North 465 535 32,400 -3,100 Descending Boston Center
Sun 11:35:30 PM 40.9694 -74.1967 10° North 465 535 28,400 -3,200 Descending Boston Center
Sun 11:36:30 PM 41.1014 -74.1672 10° North 476 548 26,000 -1,200 Descending Boston Center
Sun 11:37:30 PM 41.2308 -74.1403 North 476 548 26,000  Level Boston Center
Sun 11:38:30 PM 41.3544 -74.1103 10° North 460 529 26,000 -1,000 Level Boston Center
Sun 11:39:30 PM 41.4714 -74.0858 North 465 535 24,000 -1,800 Descending Boston Center
Sun 11:40:30 PM 41.6136 -74.0533 10° North 470 541 22,400 -1,800 Descending Boston Center
Sun 11:41:30 PM 41.7286 -74.0311 North 447 514 20,400 -2,100 Descending Boston Center
Sun 11:42:30 PM 41.8331 -74.0089 North 425 489 18,200 -2,748 Descending Boston Center
Sun 11:43:17 PM 41.9314 -73.9889 North 420 483 15,500 -2,916 Descending Boston Center
Sun 11:44:17 PM 42.0422 -73.9636 10° North 400 460 13,000 -2,231 Descending Boston Center
Sun 11:45:18 PM 42.1467 -73.9297 14° North 376 433 11,000 -1,131 Descending Boston Center
Sun 11:46:19 PM 42.2347 -73.9039 12° North 310 357 10,700 -843 Descending Boston Center
Sun 11:47:19 PM 42.3164 -73.8778 13° North 278 320 9,300 -1,438 Descending Boston Center
Sun 11:48:20 PM 42.3958 -73.8486 15° North 275 316 7,800 -1,587 Descending Boston Center
Sun 11:49:20 PM 42.4689 -73.8306 10° North 270 311 6,100 -1,388 Descending Boston Center
Sun 11:50:21 PM 42.5339 -73.8067 15° North 242 278 5,000 -1,082 Descending Boston Center

Login

Don't have an account? Register now (free) for customized features, flight alerts, and more!